createdAt,value
2023-01-18T00:00:44.416Z,14.52
2023-01-18T00:03:13.620Z,14.35
2023-01-18T00:05:44.674Z,16.73
2023-01-18T00:08:15.081Z,20.67
2023-01-18T00:10:44.111Z,15.50
2023-01-18T00:13:12.443Z,14.75
2023-01-18T00:15:41.281Z,21.50
2023-01-18T00:18:09.814Z,16.98
2023-01-18T00:20:37.937Z,15.82
2023-01-18T00:23:08.159Z,11.88
2023-01-18T00:25:36.453Z,12.77
2023-01-18T00:28:05.168Z,17.35
2023-01-18T00:30:33.703Z,16.02
2023-01-18T00:33:02.079Z,15.30
2023-01-18T00:35:30.131Z,16.05
2023-01-18T00:37:58.316Z,15.55
2023-01-18T00:40:30.410Z,14.95
2023-01-18T00:43:15.912Z,19.08
2023-01-18T00:45:45.696Z,22.42
2023-01-18T00:48:13.713Z,22.45
2023-01-18T00:50:41.631Z,16.80
2023-01-18T00:53:09.773Z,18.17
2023-01-18T00:55:39.394Z,15.70
2023-01-18T00:58:07.765Z,13.18
2023-01-18T01:00:35.870Z,15.35
2023-01-18T01:03:03.809Z,19.23
2023-01-18T01:05:49.820Z,14.90
2023-01-18T01:08:18.000Z,16.42
2023-01-18T01:10:48.923Z,15.85
2023-01-18T01:13:36.599Z,16.85
2023-01-18T01:16:26.467Z,15.75
2023-01-18T01:19:12.592Z,12.70
2023-01-18T01:21:59.323Z,10.40
2023-01-18T01:24:45.828Z,12.95
2023-01-18T01:27:15.513Z,16.50
2023-01-18T01:29:43.517Z,14.70
2023-01-18T01:32:13.156Z,16.55
2023-01-18T01:34:40.952Z,13.25
2023-01-18T01:37:08.928Z,15.65
2023-01-18T01:39:37.235Z,16.73
2023-01-18T01:42:05.428Z,20.10
2023-01-18T01:44:56.072Z,11.05
2023-01-18T01:47:37.103Z,17.33
2023-01-18T01:50:13.153Z,16.15
2023-01-18T01:52:44.977Z,15.80
2023-01-18T01:55:19.000Z,18.65
2023-01-18T01:57:50.958Z,18.65
2023-01-18T02:00:23.363Z,14.25
2023-01-18T02:02:55.806Z,17.52
2023-01-18T02:05:24.774Z,15.75
2023-01-18T02:07:53.181Z,14.52
2023-01-18T02:10:21.855Z,11.20
2023-01-18T02:12:52.726Z,12.35
2023-01-18T02:15:24.101Z,13.45
2023-01-18T02:18:12.186Z,13.70
2023-01-18T02:21:11.649Z,13.02
2023-01-18T02:24:21.656Z,13.60
2023-01-18T02:27:05.366Z,11.75
2023-01-18T02:30:09.239Z,12.65
2023-01-18T02:32:48.047Z,13.63
2023-01-18T02:35:22.646Z,16.95
2023-01-18T02:37:59.220Z,13.38
2023-01-18T02:40:33.877Z,10.43
2023-01-18T02:43:22.460Z,10.73
2023-01-18T02:46:10.067Z,11.13
2023-01-18T02:48:40.497Z,9.15
2023-01-18T02:51:08.880Z,17.05
2023-01-18T02:53:41.859Z,14.10
2023-01-18T02:56:14.340Z,11.82
2023-01-18T02:58:47.092Z,13.20
2023-01-18T03:01:22.274Z,12.98
2023-01-18T03:03:52.689Z,8.57
2023-01-18T03:06:24.933Z,14.45
2023-01-18T03:08:55.586Z,8.15
2023-01-18T03:11:32.737Z,14.57
2023-01-18T03:14:08.378Z,11.85
2023-01-18T03:16:57.747Z,11.30
2023-01-18T03:19:53.263Z,9.23
2023-01-18T03:22:41.570Z,13.20
2023-01-18T03:25:11.779Z,11.65
2023-01-18T03:27:59.889Z,8.32
2023-01-18T03:30:48.669Z,8.95
2023-01-18T03:33:39.238Z,11.35
2023-01-18T03:36:11.961Z,8.88
2023-01-18T03:38:42.626Z,10.77
2023-01-18T03:41:11.796Z,10.52
2023-01-18T03:43:43.264Z,12.27
2023-01-18T03:46:11.242Z,9.10
2023-01-18T03:48:41.030Z,10.80
2023-01-18T03:51:17.488Z,10.43
2023-01-18T03:53:56.396Z,13.60
2023-01-18T03:56:31.320Z,12.25
2023-01-18T03:59:03.800Z,13.68
2023-01-18T04:01:32.240Z,9.07
2023-01-18T04:04:01.940Z,14.07
2023-01-18T04:06:31.777Z,17.02
2023-01-18T04:08:59.884Z,14.98
2023-01-18T04:11:27.754Z,14.27
2023-01-18T04:13:56.276Z,10.95
2023-01-18T04:16:24.150Z,12.85
2023-01-18T04:18:52.879Z,16.63
2023-01-18T04:21:22.817Z,19.58
2023-01-18T04:23:50.813Z,13.48
2023-01-18T04:26:19.449Z,10.93
2023-01-18T04:28:47.987Z,14.98
2023-01-18T04:31:15.811Z,11.80
2023-01-18T04:33:43.732Z,14.63
2023-01-18T04:36:12.064Z,16.27
2023-01-18T04:38:41.478Z,11.75
2023-01-18T04:41:09.252Z,14.70
2023-01-18T04:43:37.946Z,13.98
2023-01-18T04:46:06.114Z,13.30
2023-01-18T04:48:33.963Z,15.80
2023-01-18T04:51:02.384Z,10.82
2023-01-18T04:53:30.806Z,13.00
2023-01-18T04:56:00.249Z,11.38
2023-01-18T04:58:28.657Z,13.45
2023-01-18T05:00:56.703Z,18.17
2023-01-18T05:03:24.700Z,18.90
2023-01-18T05:05:52.992Z,14.07
2023-01-18T05:08:20.797Z,14.80
2023-01-18T05:10:48.721Z,14.65
2023-01-18T05:13:18.504Z,15.70
2023-01-18T05:15:46.423Z,16.17
2023-01-18T05:18:14.283Z,12.93
2023-01-18T05:20:42.935Z,12.95
2023-01-18T05:23:11.686Z,16.85
2023-01-18T05:25:40.436Z,13.25
2023-01-18T05:28:10.460Z,13.32
2023-01-18T05:30:42.866Z,12.57
2023-01-18T05:33:11.376Z,16.05
2023-01-18T05:35:39.193Z,17.92
2023-01-18T05:38:07.147Z,15.98
2023-01-18T05:40:35.592Z,20.73
2023-01-18T05:43:03.455Z,15.13
2023-01-18T05:45:31.372Z,13.27
2023-01-18T05:48:01.514Z,14.68
2023-01-18T05:50:29.410Z,15.82
2023-01-18T05:52:58.599Z,15.77
2023-01-18T05:55:27.271Z,17.02
2023-01-18T05:57:55.303Z,14.45
2023-01-18T06:00:24.038Z,16.73
2023-01-18T06:02:53.732Z,15.85
2023-01-18T06:05:24.281Z,16.23
2023-01-18T06:07:52.368Z,14.82
2023-01-18T06:10:21.004Z,20.75
2023-01-18T06:12:48.906Z,21.40
2023-01-18T06:15:17.228Z,20.10
2023-01-18T06:17:47.474Z,19.88
2023-01-18T06:20:15.575Z,22.02
2023-01-18T06:22:45.746Z,16.52
2023-01-18T06:25:14.275Z,19.58
2023-01-18T06:27:42.694Z,23.75
2023-01-18T06:30:12.204Z,21.60
2023-01-18T06:32:40.564Z,18.65
2023-01-18T06:35:09.003Z,21.25
2023-01-18T06:37:36.930Z,18.20
2023-01-18T06:40:08.254Z,18.35
2023-01-18T06:42:36.051Z,29.75
2023-01-18T06:45:04.187Z,17.40
2023-01-18T06:47:32.280Z,19.90
2023-01-18T06:50:00.212Z,19.80
2023-01-18T06:52:28.039Z,17.90
2023-01-18T06:54:56.440Z,17.85
2023-01-18T06:57:25.803Z,19.85
2023-01-18T06:59:55.079Z,24.00
2023-01-18T07:02:23.349Z,19.65
2023-01-18T07:04:51.350Z,20.10
2023-01-18T07:07:19.207Z,21.13
2023-01-18T07:09:47.013Z,23.25
2023-01-18T07:12:15.006Z,25.13
2023-01-18T07:14:44.204Z,24.92
2023-01-18T07:17:11.967Z,17.00
2023-01-18T07:19:39.962Z,18.33
2023-01-18T07:22:07.841Z,17.88
2023-01-18T07:24:35.772Z,20.23
2023-01-18T07:27:03.830Z,18.90
2023-01-18T07:29:32.473Z,19.80
2023-01-18T07:32:02.585Z,23.83
2023-01-18T07:34:30.662Z,19.67
2023-01-18T07:36:58.807Z,18.65
2023-01-18T07:39:26.597Z,18.13
2023-01-18T07:41:54.381Z,23.08
2023-01-18T07:44:22.189Z,20.00
2023-01-18T07:46:50.006Z,22.10
2023-01-18T07:49:19.359Z,21.13
2023-01-18T07:51:47.404Z,20.50
2023-01-18T07:54:16.958Z,22.92
2023-01-18T07:56:44.758Z,21.08
2023-01-18T07:59:12.852Z,25.20
2023-01-18T08:01:40.668Z,24.45
2023-01-18T08:04:09.320Z,25.63
2023-01-18T08:06:38.680Z,22.80
2023-01-18T08:09:06.799Z,29.77
2023-01-18T08:11:34.632Z,24.50
2023-01-18T08:14:02.606Z,25.98
2023-01-18T08:16:30.496Z,23.27
2023-01-18T08:18:58.308Z,20.25
2023-01-18T08:21:26.115Z,18.95
2023-01-18T08:23:55.502Z,24.02
2023-01-18T08:26:23.287Z,21.98
2023-01-18T08:28:51.233Z,19.83
2023-01-18T08:31:22.684Z,22.42
2023-01-18T08:33:51.498Z,20.13
2023-01-18T08:36:20.741Z,23.73
2023-01-18T08:38:50.322Z,22.20
2023-01-18T08:41:20.944Z,21.67
2023-01-18T08:43:50.975Z,24.67
2023-01-18T08:46:19.250Z,22.15
2023-01-18T08:48:50.910Z,34.58
2023-01-18T08:51:19.225Z,28.52
2023-01-18T08:53:49.018Z,33.38
2023-01-18T08:56:17.376Z,25.52
2023-01-18T08:58:47.341Z,23.70
2023-01-18T09:01:15.410Z,25.52
2023-01-18T09:03:44.043Z,30.45
2023-01-18T09:06:13.188Z,26.50
2023-01-18T09:08:41.350Z,26.23
2023-01-18T09:11:12.231Z,24.02
2023-01-18T09:13:54.674Z,33.38
2023-01-18T09:16:28.959Z,35.17
2023-01-18T09:18:58.466Z,30.60
2023-01-18T09:21:27.898Z,28.17
2023-01-18T09:23:56.508Z,29.83
2023-01-18T09:26:24.320Z,30.95
2023-01-18T09:28:53.385Z,24.92
2023-01-18T09:31:23.663Z,27.42
2023-01-18T09:33:54.248Z,36.13
2023-01-18T09:36:26.749Z,26.88
2023-01-18T09:38:55.474Z,23.58
2023-01-18T09:41:31.509Z,25.38
2023-01-18T09:44:02.648Z,23.48
2023-01-18T09:46:35.457Z,26.35
2023-01-18T09:49:08.287Z,25.75
2023-01-18T09:51:50.528Z,23.75
2023-01-18T09:54:33.576Z,28.90
2023-01-18T09:57:10.936Z,23.10
2023-01-18T09:59:44.708Z,23.65
2023-01-18T10:02:19.584Z,22.40
2023-01-18T10:04:53.976Z,20.85
2023-01-18T10:07:25.002Z,24.27
2023-01-18T10:09:56.471Z,24.58
2023-01-18T10:12:31.516Z,25.40
2023-01-18T10:17:37.353Z,21.42
2023-01-18T10:22:49.883Z,18.27
2023-01-18T10:25:26.282Z,23.63
2023-01-18T10:28:24.511Z,20.65
2023-01-18T10:31:03.858Z,18.15
2023-01-18T10:33:37.598Z,16.98
2023-01-18T10:36:15.903Z,16.05
2023-01-18T10:38:44.893Z,19.00
2023-01-18T10:41:20.696Z,15.27
2023-01-18T10:43:49.271Z,16.70
2023-01-18T10:46:19.951Z,16.05
2023-01-18T10:48:49.561Z,17.15
2023-01-18T10:51:30.790Z,14.45
2023-01-18T10:53:58.936Z,18.65
2023-01-18T10:56:28.231Z,13.77
2023-01-18T10:58:58.979Z,17.95
2023-01-18T11:01:29.200Z,17.85
2023-01-18T11:04:03.104Z,14.15
2023-01-18T11:06:32.871Z,14.25
2023-01-18T11:09:01.559Z,15.13
2023-01-18T11:11:45.461Z,13.15
2023-01-18T11:14:25.973Z,17.58
2023-01-18T11:17:02.455Z,17.17
2023-01-18T11:19:31.040Z,12.73
2023-01-18T11:22:01.031Z,16.05
2023-01-18T11:24:31.271Z,14.00
2023-01-18T11:27:03.000Z,16.98
2023-01-18T11:29:33.938Z,14.82
2023-01-18T11:32:05.243Z,14.05
2023-01-18T11:34:36.606Z,13.57
2023-01-18T11:37:26.368Z,15.18
2023-01-18T11:39:54.304Z,14.48
2023-01-18T11:42:26.824Z,12.35
2023-01-18T11:45:17.810Z,14.88
2023-01-18T11:47:59.139Z,13.93
2023-01-18T11:50:32.102Z,13.27
2023-01-18T11:53:11.079Z,9.98
2023-01-18T11:55:47.757Z,12.55
2023-01-18T11:58:24.521Z,9.75
2023-01-18T12:01:13.128Z,8.77
2023-01-18T12:03:53.160Z,9.52
2023-01-18T12:06:37.072Z,14.50
2023-01-18T12:09:15.620Z,9.00
2023-01-18T12:11:53.904Z,8.57
2023-01-18T12:14:33.585Z,6.63
2023-01-18T12:17:20.560Z,7.70
2023-01-18T12:20:04.886Z,10.43
2023-01-18T12:23:03.874Z,10.35
2023-01-18T12:26:10.883Z,7.85
2023-01-18T12:28:50.712Z,8.90
2023-01-18T12:31:34.438Z,13.52
2023-01-18T12:34:12.532Z,8.95
2023-01-18T12:36:54.776Z,9.55
2023-01-18T12:39:39.088Z,22.30
2023-01-18T12:42:16.645Z,14.05
2023-01-18T12:45:06.999Z,10.32
2023-01-18T12:47:39.317Z,10.98
2023-01-18T12:50:17.514Z,11.30
2023-01-18T12:52:50.347Z,15.52
2023-01-18T12:55:22.840Z,8.68
2023-01-18T12:57:56.403Z,11.80
2023-01-18T13:00:32.719Z,23.70
2023-01-18T13:03:00.558Z,15.00
2023-01-18T13:05:37.296Z,18.67
2023-01-18T13:08:11.247Z,25.20
2023-01-18T13:10:40.015Z,17.15
2023-01-18T13:13:18.683Z,23.35
2023-01-18T13:15:54.735Z,14.10
2023-01-18T13:18:27.375Z,12.32
2023-01-18T13:21:09.959Z,13.95
2023-01-18T13:23:50.572Z,15.80
2023-01-18T13:26:24.895Z,18.08
2023-01-18T13:31:46.070Z,26.42
2023-01-18T13:34:33.289Z,17.45
2023-01-18T13:37:14.533Z,22.30
2023-01-18T13:39:46.918Z,20.45
2023-01-18T13:42:35.915Z,35.67
2023-01-18T13:45:20.289Z,18.70
2023-01-18T13:47:53.672Z,24.60
2023-01-18T13:50:42.510Z,22.65
2023-01-18T13:53:22.524Z,13.77
2023-01-18T13:56:13.157Z,17.75
2023-01-18T13:58:45.964Z,14.57
2023-01-18T14:01:23.873Z,12.15
2023-01-18T14:03:54.537Z,17.80
2023-01-18T14:06:31.141Z,9.55
2023-01-18T14:09:14.739Z,10.32
2023-01-18T14:11:50.570Z,8.93
2023-01-18T14:14:27.624Z,13.07
2023-01-18T14:16:59.359Z,13.07
2023-01-18T14:19:30.952Z,16.15
2023-01-18T14:22:12.756Z,12.30
2023-01-18T14:25:06.511Z,12.13
2023-01-18T14:27:39.457Z,13.75
2023-01-18T14:30:13.314Z,8.90
2023-01-18T14:32:47.680Z,14.95
2023-01-18T14:35:25.493Z,10.60
2023-01-18T14:37:54.351Z,8.95
2023-01-18T14:40:25.337Z,11.73
2023-01-18T14:42:56.629Z,8.68
2023-01-18T14:45:29.777Z,11.57
2023-01-18T14:48:00.513Z,10.13
2023-01-18T14:50:33.753Z,12.38
2023-01-18T14:53:02.316Z,15.38
2023-01-18T14:55:32.598Z,12.35
2023-01-18T14:58:16.916Z,10.55
2023-01-18T15:00:48.868Z,9.85
2023-01-18T15:03:24.158Z,10.52
2023-01-18T15:08:28.380Z,13.80
2023-01-18T15:10:56.556Z,10.73
2023-01-18T15:13:27.555Z,10.00
2023-01-18T15:16:00.154Z,11.93
2023-01-18T15:18:30.591Z,9.93
2023-01-18T15:21:03.756Z,9.07
2023-01-18T15:23:36.143Z,11.07
2023-01-18T15:26:04.631Z,9.88
2023-01-18T15:28:34.352Z,14.68
2023-01-18T15:31:10.013Z,15.63
2023-01-18T15:33:38.938Z,14.30
2023-01-18T15:36:10.223Z,11.40
2023-01-18T15:38:38.436Z,12.75
2023-01-18T15:41:11.089Z,18.60
2023-01-18T15:43:43.419Z,11.82
2023-01-18T15:46:14.194Z,27.17
2023-01-18T15:48:50.315Z,15.88
2023-01-18T15:51:40.837Z,15.82
2023-01-18T15:54:08.732Z,17.38
2023-01-18T15:56:36.642Z,13.40
2023-01-18T15:59:10.492Z,16.08
2023-01-18T16:01:38.436Z,19.52
2023-01-18T16:04:22.702Z,14.23
2023-01-18T16:06:52.019Z,16.05
2023-01-18T16:09:23.133Z,13.07
2023-01-18T16:11:54.247Z,15.68
2023-01-18T16:14:27.690Z,15.25
2023-01-18T16:16:57.612Z,17.65
2023-01-18T16:19:52.677Z,14.13
2023-01-18T16:25:24.363Z,27.13
2023-01-18T16:27:55.062Z,22.95
2023-01-18T17:02:57.001Z,21.65
2023-01-18T17:05:39.145Z,23.73
2023-01-18T17:08:07.671Z,45.45
2023-01-18T17:10:39.516Z,36.80
2023-01-18T17:13:07.844Z,24.80
2023-01-18T17:15:35.797Z,25.52
2023-01-18T17:21:52.613Z,34.63
2023-01-18T17:24:22.110Z,22.95
2023-01-18T17:26:50.359Z,21.50
2023-01-18T17:29:21.364Z,18.38
2023-01-18T17:31:53.514Z,22.85
2023-01-18T17:34:28.270Z,20.17
2023-01-18T17:36:59.385Z,23.45
2023-01-18T17:39:43.866Z,20.50
2023-01-18T17:42:22.914Z,19.30
2023-01-18T17:45:03.952Z,24.50
2023-01-18T17:47:33.044Z,16.05
2023-01-18T17:50:04.139Z,20.30
2023-01-18T17:52:33.448Z,15.55
2023-01-18T17:55:01.341Z,17.30
2023-01-18T17:57:30.364Z,13.82
2023-01-18T17:59:58.355Z,12.90
2023-01-18T18:02:27.182Z,17.05
2023-01-18T18:04:55.746Z,25.90
2023-01-18T18:07:23.630Z,22.55
2023-01-18T18:09:58.774Z,15.48
2023-01-18T18:12:26.751Z,15.07
2023-01-18T18:14:55.933Z,15.10
2023-01-18T18:17:25.090Z,15.20
2023-01-18T18:19:53.070Z,14.07
2023-01-18T18:22:20.886Z,19.10
2023-01-18T18:24:50.441Z,14.30
2023-01-18T18:27:20.370Z,16.45
2023-01-18T18:29:49.060Z,13.43
2023-01-18T18:32:17.800Z,12.40
2023-01-18T18:34:45.636Z,15.88
2023-01-18T18:37:15.191Z,13.82
2023-01-18T18:39:43.974Z,14.68
2023-01-18T18:42:12.175Z,14.65
2023-01-18T18:44:41.400Z,13.65
2023-01-18T18:47:10.588Z,14.82
2023-01-18T18:49:38.592Z,24.98
2023-01-18T18:52:06.443Z,19.10
2023-01-18T18:54:35.072Z,22.10
2023-01-18T18:57:03.863Z,25.08
2023-01-18T18:59:31.948Z,30.60
2023-01-18T19:02:01.756Z,16.63
2023-01-18T19:04:29.837Z,20.60
2023-01-18T19:06:58.278Z,43.30
2023-01-18T19:09:27.183Z,17.73
2023-01-18T19:11:55.688Z,15.30
2023-01-18T19:14:25.745Z,16.73
2023-01-18T19:16:54.702Z,17.50
2023-01-18T19:19:25.956Z,20.95
2023-01-18T19:21:54.558Z,18.38
2023-01-18T19:24:22.605Z,15.30
2023-01-18T19:26:50.480Z,17.67
2023-01-18T19:29:18.654Z,18.75
2023-01-18T19:31:46.706Z,15.35
2023-01-18T19:34:16.174Z,19.92
2023-01-18T19:36:45.712Z,16.42
2023-01-18T19:39:21.915Z,18.17
2023-01-18T19:41:50.661Z,15.40
2023-01-18T19:44:18.716Z,15.63
2023-01-18T19:46:49.386Z,14.88
2023-01-18T19:49:20.252Z,23.23
2023-01-18T19:51:56.194Z,20.17
2023-01-18T19:54:24.800Z,19.10
2023-01-18T19:56:53.069Z,18.92
2023-01-18T19:59:21.128Z,19.02
2023-01-18T20:01:58.770Z,18.67
2023-01-18T20:04:27.081Z,19.58
2023-01-18T20:06:58.487Z,18.63
2023-01-18T20:09:38.367Z,23.60
2023-01-18T20:12:12.501Z,19.80
2023-01-18T20:14:41.982Z,20.08
2023-01-18T20:17:10.828Z,15.73
2023-01-18T20:19:38.724Z,19.58
2023-01-18T20:22:10.449Z,18.10
2023-01-18T20:24:38.565Z,20.55
2023-01-18T20:27:15.932Z,18.83
2023-01-18T20:29:45.076Z,17.25
2023-01-18T20:32:16.546Z,17.70
2023-01-18T20:34:47.654Z,16.65
2023-01-18T20:37:19.560Z,16.52
2023-01-18T20:39:48.103Z,15.55
2023-01-18T20:42:16.201Z,20.48
2023-01-18T20:44:49.329Z,17.85
2023-01-18T20:47:18.034Z,18.63
2023-01-18T20:49:47.105Z,19.58
2023-01-18T20:52:17.118Z,21.92
2023-01-18T20:54:44.970Z,16.55
2023-01-18T20:57:12.796Z,20.20
2023-01-18T20:59:43.012Z,17.20
2023-01-18T21:02:11.227Z,18.73
2023-01-18T21:04:39.880Z,16.92
2023-01-18T21:07:08.556Z,23.98
2023-01-18T21:09:38.070Z,17.35
2023-01-18T21:12:06.145Z,17.75
2023-01-18T21:14:35.262Z,18.27
2023-01-18T21:17:03.647Z,18.00
2023-01-18T21:19:31.627Z,20.80
2023-01-18T21:22:00.188Z,20.15
2023-01-18T21:24:28.164Z,20.40
2023-01-18T21:26:57.773Z,24.95
2023-01-18T21:29:26.290Z,19.27
2023-01-18T21:31:54.420Z,22.55
2023-01-18T21:34:22.755Z,26.10
2023-01-18T21:36:54.757Z,20.58
2023-01-18T21:39:25.536Z,23.08
2023-01-18T21:42:12.029Z,36.80
2023-01-18T21:44:59.236Z,26.38
2023-01-18T21:47:28.459Z,22.60
2023-01-18T21:50:18.471Z,31.38
2023-01-18T21:53:04.556Z,20.48
2023-01-18T21:55:33.487Z,20.13
2023-01-18T21:58:19.877Z,18.92
2023-01-18T22:00:49.115Z,17.90
2023-01-18T22:03:18.612Z,21.77
2023-01-18T22:05:48.174Z,18.73
2023-01-18T22:08:16.419Z,24.58
2023-01-18T22:10:50.763Z,18.52
2023-01-18T22:13:19.043Z,21.53
2023-01-18T22:15:49.503Z,19.63
2023-01-18T22:18:18.281Z,19.08
2023-01-18T22:20:55.750Z,22.75
2023-01-18T22:23:24.209Z,21.60
2023-01-18T22:25:55.293Z,18.48
2023-01-18T22:28:23.440Z,25.67
2023-01-18T22:30:57.018Z,19.10
2023-01-18T22:33:24.977Z,25.17
2023-01-18T22:35:58.889Z,23.25
2023-01-18T22:38:27.143Z,18.27
2023-01-18T22:41:03.425Z,20.95
2023-01-18T22:43:32.067Z,19.73
2023-01-18T22:46:01.831Z,18.58
2023-01-18T22:48:30.310Z,24.60
2023-01-18T22:51:00.526Z,38.45
2023-01-18T22:53:42.573Z,24.23
2023-01-18T22:56:13.907Z,25.30
2023-01-18T22:58:41.784Z,21.25
2023-01-18T23:01:18.221Z,22.55
2023-01-18T23:03:46.518Z,22.20
2023-01-18T23:06:15.038Z,21.88
2023-01-18T23:08:46.357Z,26.25
2023-01-18T23:11:16.413Z,22.75
2023-01-18T23:14:08.712Z,27.30
2023-01-18T23:16:56.318Z,25.63
2023-01-18T23:19:25.539Z,18.83
2023-01-18T23:21:54.293Z,17.25
2023-01-18T23:24:22.809Z,21.50
2023-01-18T23:26:51.253Z,21.05
2023-01-18T23:29:20.000Z,22.48
2023-01-18T23:31:49.261Z,20.30
2023-01-18T23:34:17.732Z,21.15
2023-01-18T23:36:45.585Z,21.30
2023-01-18T23:39:34.825Z,25.70
2023-01-18T23:42:22.452Z,21.33
2023-01-18T23:45:12.232Z,24.17
2023-01-18T23:48:05.982Z,22.27
2023-01-18T23:56:40.143Z,28.02
2023-01-18T23:59:08.826Z,23.67
